createdAt,value
2019-01-15T00:00:04.189Z,994.0
2019-01-15T00:01:04.853Z,994.0
2019-01-15T00:02:05.521Z,994.0
2019-01-15T00:03:06.189Z,994.0
2019-01-15T00:04:06.857Z,994.0
2019-01-15T00:05:07.526Z,994.1
2019-01-15T00:06:08.194Z,994.1
2019-01-15T00:07:08.863Z,994.1
2019-01-15T00:08:09.532Z,994.1
2019-01-15T00:09:10.199Z,994.1
2019-01-15T00:10:10.868Z,994.1
2019-01-15T00:11:11.537Z,994.1
2019-01-15T00:12:12.206Z,994.2
2019-01-15T00:13:12.879Z,994.2
2019-01-15T00:14:13.545Z,994.2
2019-01-15T00:15:14.215Z,994.1
2019-01-15T00:16:14.893Z,994.1
2019-01-15T00:17:15.560Z,994.1
2019-01-15T00:18:16.235Z,994.1
2019-01-15T00:19:16.901Z,994.2
2019-01-15T00:20:17.569Z,994.2
2019-01-15T00:21:18.235Z,994.1
2019-01-15T00:22:18.905Z,994.3
2019-01-15T00:23:19.574Z,994.2
2019-01-15T00:24:20.242Z,994.2
2019-01-15T00:25:20.913Z,994.2
2019-01-15T00:26:21.582Z,994.3
2019-01-15T00:27:22.251Z,994.2
2019-01-15T00:28:22.918Z,994.3
2019-01-15T00:29:23.587Z,994.3
2019-01-15T00:30:24.257Z,994.3
2019-01-15T00:31:24.926Z,994.3
2019-01-15T00:32:25.644Z,994.3
2019-01-15T00:33:26.315Z,994.3
2019-01-15T00:34:26.979Z,994.3
2019-01-15T00:35:27.649Z,994.3
2019-01-15T00:36:28.318Z,994.3
2019-01-15T00:37:28.988Z,994.3
2019-01-15T00:38:29.656Z,994.4
2019-01-15T00:39:30.327Z,994.4
2019-01-15T00:40:30.994Z,994.3
2019-01-15T00:41:31.663Z,994.4
2019-01-15T00:42:32.329Z,994.4
2019-01-15T00:43:33.004Z,994.4
2019-01-15T00:44:33.718Z,994.4
2019-01-15T00:45:34.386Z,994.4
2019-01-15T00:46:35.055Z,994.4
2019-01-15T00:47:35.724Z,994.5
2019-01-15T00:48:36.392Z,994.5
2019-01-15T00:49:37.062Z,994.4
2019-01-15T00:50:37.729Z,994.5
2019-01-15T00:51:38.397Z,994.6
2019-01-15T00:52:39.065Z,994.5
2019-01-15T00:53:39.735Z,994.5
2019-01-15T00:54:40.402Z,994.5
2019-01-15T00:55:41.070Z,994.4
2019-01-15T00:56:41.738Z,994.5
2019-01-15T00:57:42.408Z,994.5
2019-01-15T00:58:43.075Z,994.5
2019-01-15T00:59:43.745Z,994.5
2019-01-15T01:00:44.411Z,994.5
2019-01-15T01:01:45.082Z,994.5
2019-01-15T01:02:45.751Z,994.6
2019-01-15T01:03:46.467Z,994.6
2019-01-15T01:04:47.137Z,994.5
2019-01-15T01:05:47.856Z,994.6
2019-01-15T01:06:48.481Z,994.6
2019-01-15T01:07:49.151Z,994.6
2019-01-15T01:08:49.868Z,994.7
2019-01-15T01:09:50.586Z,994.7
2019-01-15T01:10:51.254Z,994.6
2019-01-15T01:11:51.924Z,994.6
2019-01-15T01:12:52.592Z,994.6
2019-01-15T01:13:53.262Z,994.7
2019-01-15T01:14:53.930Z,994.7
2019-01-15T01:15:54.599Z,994.6
2019-01-15T01:16:55.268Z,994.6
2019-01-15T01:17:55.938Z,994.7
2019-01-15T01:18:56.606Z,994.6
2019-01-15T01:19:57.280Z,994.7
2019-01-15T01:20:57.944Z,994.6
2019-01-15T01:21:58.612Z,994.6
2019-01-15T01:22:59.279Z,994.6
2019-01-15T01:23:59.998Z,994.6
2019-01-15T01:25:00.718Z,994.6
2019-01-15T01:26:01.439Z,994.6
2019-01-15T01:27:02.105Z,994.7
2019-01-15T01:28:02.773Z,994.7
2019-01-15T01:29:03.441Z,994.7
2019-01-15T01:30:04.112Z,994.7
2019-01-15T01:31:04.781Z,994.7
2019-01-15T01:32:05.447Z,994.7
2019-01-15T01:33:06.114Z,994.7
2019-01-15T01:34:06.784Z,994.7
2019-01-15T01:35:07.454Z,994.7
2019-01-15T01:36:08.121Z,994.7
2019-01-15T01:37:08.792Z,994.8
2019-01-15T01:38:09.460Z,994.8
2019-01-15T01:39:10.129Z,994.8
2019-01-15T01:40:10.797Z,994.8
2019-01-15T01:41:11.466Z,994.8
2019-01-15T01:42:12.133Z,994.8
2019-01-15T01:43:12.800Z,994.8
2019-01-15T01:44:13.466Z,994.8
2019-01-15T01:45:14.135Z,994.8
2019-01-15T01:46:14.804Z,994.8
2019-01-15T01:47:15.472Z,994.9
2019-01-15T01:48:16.140Z,994.8
2019-01-15T01:49:16.808Z,994.8
2019-01-15T01:50:17.477Z,994.8
2019-01-15T01:51:18.144Z,994.8
2019-01-15T01:52:18.813Z,994.8
2019-01-15T01:53:19.481Z,994.8
2019-01-15T01:54:20.150Z,994.9
2019-01-15T01:55:20.818Z,994.8
2019-01-15T01:56:21.488Z,994.8
2019-01-15T01:57:22.162Z,994.8
2019-01-15T01:58:22.875Z,994.9
2019-01-15T01:59:23.546Z,994.9
2019-01-15T02:00:24.211Z,994.8
2019-01-15T02:01:24.880Z,994.8
2019-01-15T02:02:25.546Z,994.8
2019-01-15T02:03:26.213Z,994.9
2019-01-15T02:04:26.881Z,994.9
2019-01-15T02:05:27.550Z,994.9
2019-01-15T02:06:28.264Z,995.0
2019-01-15T02:07:28.938Z,995.0
2019-01-15T02:08:29.599Z,995.0
2019-01-15T02:09:30.265Z,995.0
2019-01-15T02:10:30.933Z,995.0
2019-01-15T02:11:31.601Z,995.1
2019-01-15T02:12:36.859Z,995.0
2019-01-15T02:13:32.978Z,995.0
2019-01-15T02:14:33.647Z,995.0
2019-01-15T02:15:34.313Z,995.0
2019-01-15T02:16:34.981Z,995.1
2019-01-15T02:17:35.647Z,995.0
2019-01-15T02:18:36.324Z,995.1
2019-01-15T02:19:36.983Z,995.0
2019-01-15T02:20:37.652Z,995.1
2019-01-15T02:21:38.366Z,995.0
2019-01-15T02:22:39.035Z,995.0
2019-01-15T02:23:39.703Z,995.0
2019-01-15T02:24:40.373Z,995.1
2019-01-15T02:25:41.038Z,995.1
2019-01-15T02:26:41.707Z,995.1
2019-01-15T02:27:42.374Z,995.2
2019-01-15T02:28:43.045Z,995.1
2019-01-15T02:29:43.709Z,995.1
2019-01-15T02:30:44.378Z,995.1
2019-01-15T02:31:45.045Z,995.1
2019-01-15T02:32:45.712Z,995.1
2019-01-15T02:33:46.431Z,995.1
2019-01-15T02:34:47.100Z,995.0
2019-01-15T02:35:47.766Z,995.1
2019-01-15T02:36:48.434Z,995.1
2019-01-15T02:37:49.101Z,995.1
2019-01-15T02:38:49.785Z,995.2
2019-01-15T02:39:50.485Z,995.2
2019-01-15T02:40:51.152Z,995.2
2019-01-15T02:41:51.819Z,995.1
2019-01-15T02:42:52.487Z,995.2
2019-01-15T02:43:53.153Z,995.2
2019-01-15T02:44:53.821Z,995.2
2019-01-15T02:45:54.486Z,995.1
2019-01-15T02:46:55.154Z,995.1
2019-01-15T02:47:55.820Z,995.1
2019-01-15T02:48:56.489Z,995.1
2019-01-15T02:49:57.156Z,995.1
2019-01-15T02:50:57.821Z,995.1
2019-01-15T02:51:58.489Z,995.1
2019-01-15T02:52:59.209Z,995.0
2019-01-15T02:53:59.924Z,995.1
2019-01-15T02:55:00.590Z,995.1
2019-01-15T02:56:01.261Z,995.0
2019-01-15T02:57:01.976Z,995.1
2019-01-15T02:58:02.643Z,995.1
2019-01-15T02:59:03.312Z,995.0
2019-01-15T03:00:03.980Z,995.1
2019-01-15T03:01:04.650Z,995.0
2019-01-15T03:02:05.355Z,995.1
2019-01-15T03:03:06.032Z,995.1
2019-01-15T03:04:06.689Z,995.1
2019-01-15T03:05:07.405Z,995.1
2019-01-15T03:06:08.070Z,995.0
2019-01-15T03:07:08.739Z,995.0
2019-01-15T03:08:09.406Z,995.0
2019-01-15T03:09:10.074Z,995.0
2019-01-15T03:10:10.745Z,995.0
2019-01-15T03:11:11.409Z,995.0
2019-01-15T03:12:12.074Z,995.0
2019-01-15T03:13:12.747Z,994.9
2019-01-15T03:14:13.457Z,994.9
2019-01-15T03:15:14.125Z,994.9
2019-01-15T03:16:14.793Z,994.9
2019-01-15T03:17:15.458Z,994.8
2019-01-15T03:18:16.127Z,994.8
2019-01-15T03:19:16.796Z,994.8
2019-01-15T03:20:17.472Z,994.9
2019-01-15T03:21:18.178Z,994.7
2019-01-15T03:22:18.847Z,994.8
2019-01-15T03:23:19.515Z,994.7
2019-01-15T03:24:20.181Z,994.8
2019-01-15T03:25:20.849Z,994.8
2019-01-15T03:26:21.563Z,994.8
2019-01-15T03:27:22.230Z,994.8
2019-01-15T03:28:22.897Z,994.8
2019-01-15T03:29:23.570Z,994.8
2019-01-15T03:30:24.284Z,994.8
2019-01-15T03:31:24.987Z,994.8
2019-01-15T03:32:25.674Z,994.9
2019-01-15T03:33:26.374Z,994.9
2019-01-15T03:34:27.041Z,994.7
2019-01-15T03:35:27.717Z,994.9
2019-01-15T03:36:28.424Z,994.8
2019-01-15T03:37:29.090Z,994.8
2019-01-15T03:38:29.758Z,994.9
2019-01-15T03:39:30.424Z,994.8
2019-01-15T03:40:31.093Z,994.9
2019-01-15T03:41:31.758Z,994.9
2019-01-15T03:42:32.427Z,995.0
2019-01-15T03:43:33.093Z,995.0
2019-01-15T03:44:33.763Z,994.9
2019-01-15T03:45:34.433Z,994.9
2019-01-15T03:46:35.144Z,994.9
2019-01-15T03:47:35.817Z,994.9
2019-01-15T03:48:36.479Z,994.9
2019-01-15T03:49:37.149Z,995.0
2019-01-15T03:50:37.816Z,994.9
2019-01-15T03:51:38.482Z,994.9
2019-01-15T03:52:39.149Z,994.9
2019-01-15T03:53:39.818Z,994.9
2019-01-15T03:54:40.482Z,994.9
2019-01-15T03:55:41.155Z,994.9
2019-01-15T03:56:41.868Z,994.8
2019-01-15T03:57:42.535Z,994.8
2019-01-15T03:58:43.204Z,994.9
2019-01-15T03:59:43.871Z,994.9
2019-01-15T04:00:44.541Z,994.8
2019-01-15T04:01:45.210Z,994.8
2019-01-15T04:02:45.879Z,994.9
2019-01-15T04:03:46.548Z,994.9
2019-01-15T04:04:47.215Z,994.9
2019-01-15T04:05:47.884Z,994.8
2019-01-15T04:06:48.553Z,994.9
2019-01-15T04:07:49.228Z,994.9
2019-01-15T04:08:49.939Z,994.9
2019-01-15T04:09:50.635Z,994.9
2019-01-15T04:10:51.276Z,994.9
2019-01-15T04:11:51.944Z,994.9
2019-01-15T04:12:52.614Z,994.9
2019-01-15T04:13:53.283Z,994.9
2019-01-15T04:14:53.950Z,994.9
2019-01-15T04:15:54.618Z,994.9
2019-01-15T04:16:55.290Z,994.9
2019-01-15T04:17:55.954Z,995.0
2019-01-15T04:18:56.621Z,995.0
2019-01-15T04:19:57.291Z,994.9
2019-01-15T04:20:57.958Z,995.0
2019-01-15T04:21:58.627Z,995.0
2019-01-15T04:22:59.293Z,994.9
2019-01-15T04:23:59.961Z,995.0
2019-01-15T04:25:00.630Z,995.0
2019-01-15T04:26:01.299Z,995.0
2019-01-15T04:27:01.967Z,995.0
2019-01-15T04:28:02.636Z,995.0
2019-01-15T04:29:03.303Z,995.0
2019-01-15T04:30:03.973Z,995.0
2019-01-15T04:31:04.640Z,994.9
2019-01-15T04:32:05.312Z,995.0
2019-01-15T04:33:05.977Z,995.0
2019-01-15T04:34:06.643Z,994.9
2019-01-15T04:35:07.313Z,995.0
2019-01-15T04:36:07.980Z,995.0
2019-01-15T04:37:08.647Z,995.0
2019-01-15T04:38:09.314Z,995.0
2019-01-15T04:39:09.981Z,995.1
2019-01-15T04:40:10.652Z,995.0
2019-01-15T04:41:11.320Z,995.0
2019-01-15T04:42:11.989Z,995.2
2019-01-15T04:43:19.617Z,995.0
2019-01-15T04:44:13.371Z,995.0
2019-01-15T04:45:14.038Z,995.1
2019-01-15T04:46:14.707Z,995.0
2019-01-15T04:47:15.373Z,995.2
2019-01-15T04:48:16.042Z,995.1
2019-01-15T04:49:16.710Z,995.1
2019-01-15T04:50:17.377Z,995.1
2019-01-15T04:51:18.048Z,995.0
2019-01-15T04:52:18.714Z,995.0
2019-01-15T04:53:19.382Z,995.2
2019-01-15T04:54:20.050Z,995.0
2019-01-15T04:55:20.768Z,994.9
2019-01-15T04:56:21.436Z,995.0
2019-01-15T04:57:22.104Z,995.0
2019-01-15T04:58:22.773Z,995.0
2019-01-15T04:59:23.442Z,995.0
2019-01-15T05:00:24.109Z,995.0
2019-01-15T05:01:24.775Z,994.9
2019-01-15T05:02:25.445Z,995.0
2019-01-15T05:03:26.114Z,994.9
2019-01-15T05:04:26.781Z,994.9
2019-01-15T05:05:27.456Z,994.9
2019-01-15T05:06:28.118Z,994.9
2019-01-15T05:07:28.788Z,994.8
2019-01-15T05:08:29.457Z,994.9
2019-01-15T05:09:30.171Z,994.7
2019-01-15T05:10:30.840Z,994.7
2019-01-15T05:11:31.508Z,994.8
2019-01-15T05:12:32.221Z,994.8
2019-01-15T05:13:32.890Z,994.8
2019-01-15T05:14:33.556Z,994.8
2019-01-15T05:15:34.224Z,994.8
2019-01-15T05:16:34.935Z,994.9
2019-01-15T05:17:35.605Z,994.8
2019-01-15T05:18:36.273Z,994.8
2019-01-15T05:19:36.944Z,994.9
2019-01-15T05:20:37.615Z,995.0
2019-01-15T05:21:38.329Z,994.9
2019-01-15T05:22:38.999Z,994.9
2019-01-15T05:23:39.664Z,994.9
2019-01-15T05:24:40.334Z,994.9
2019-01-15T05:25:41.002Z,994.9
2019-01-15T05:26:41.673Z,994.9
2019-01-15T05:27:42.341Z,994.9
2019-01-15T05:28:43.055Z,994.9
2019-01-15T05:29:43.749Z,994.9
2019-01-15T05:30:44.394Z,994.9
2019-01-15T05:31:45.062Z,995.0
2019-01-15T05:32:45.735Z,995.0
2019-01-15T05:33:46.401Z,994.9
2019-01-15T05:34:47.071Z,994.9
2019-01-15T05:35:47.736Z,995.0
2019-01-15T05:36:48.407Z,995.0
2019-01-15T05:37:49.074Z,995.0
2019-01-15T05:38:49.742Z,995.0
2019-01-15T05:39:50.412Z,995.1
2019-01-15T05:40:51.127Z,995.1
2019-01-15T05:41:51.796Z,995.1
2019-01-15T05:42:52.464Z,995.1
2019-01-15T05:43:53.134Z,995.0
2019-01-15T05:44:53.803Z,994.9
2019-01-15T05:45:54.470Z,994.9
2019-01-15T05:46:55.138Z,994.9
2019-01-15T05:47:55.806Z,994.9
2019-01-15T05:48:56.474Z,994.8
2019-01-15T05:49:57.142Z,994.9
2019-01-15T05:50:57.811Z,994.9
2019-01-15T05:51:58.481Z,994.8
2019-01-15T05:52:59.149Z,994.9
2019-01-15T05:53:59.814Z,994.8
2019-01-15T05:55:00.485Z,994.8
2019-01-15T05:56:01.151Z,995.0
2019-01-15T05:57:01.870Z,994.9
2019-01-15T05:58:02.539Z,994.9
2019-01-15T05:59:03.206Z,994.9
2019-01-15T06:00:03.875Z,994.9
2019-01-15T06:01:04.543Z,994.9
2019-01-15T06:02:05.213Z,994.9
2019-01-15T06:03:05.882Z,994.8
2019-01-15T06:04:06.602Z,994.9
2019-01-15T06:05:07.271Z,994.9
2019-01-15T06:06:07.939Z,994.9
2019-01-15T06:07:08.606Z,994.8
2019-01-15T06:08:09.276Z,994.9
2019-01-15T06:09:09.943Z,994.9
2019-01-15T06:10:10.612Z,994.9
2019-01-15T06:11:11.277Z,994.9
2019-01-15T06:12:11.947Z,994.9
2019-01-15T06:13:12.614Z,994.8
2019-01-15T06:14:13.283Z,994.9
2019-01-15T06:15:13.952Z,994.9
2019-01-15T06:16:14.622Z,994.9
2019-01-15T06:17:15.291Z,994.9
2019-01-15T06:18:15.958Z,994.8
2019-01-15T06:19:16.627Z,994.9
2019-01-15T06:20:17.295Z,994.9
2019-01-15T06:21:18.017Z,994.8
2019-01-15T06:22:18.684Z,994.9
2019-01-15T06:23:19.351Z,994.9
2019-01-15T06:24:20.020Z,994.8
2019-01-15T06:25:20.692Z,994.8
2019-01-15T06:26:21.357Z,994.8
2019-01-15T06:27:22.025Z,994.7
2019-01-15T06:28:22.692Z,994.7
2019-01-15T06:29:23.360Z,994.8
2019-01-15T06:30:24.030Z,994.8
2019-01-15T06:31:24.699Z,994.8
2019-01-15T06:32:25.366Z,994.9
2019-01-15T06:33:26.035Z,994.8
2019-01-15T06:34:26.708Z,994.8
2019-01-15T06:35:27.372Z,994.8
2019-01-15T06:36:28.041Z,994.9
2019-01-15T06:37:28.711Z,994.9
2019-01-15T06:38:29.380Z,994.9
2019-01-15T06:39:30.048Z,994.9
2019-01-15T06:40:30.718Z,994.9
2019-01-15T06:41:31.385Z,994.9
2019-01-15T06:42:32.053Z,994.9
2019-01-15T06:43:32.724Z,994.9
2019-01-15T06:44:33.390Z,994.9
2019-01-15T06:45:34.058Z,995.0
2019-01-15T06:46:34.727Z,994.9
2019-01-15T06:47:35.398Z,994.9
2019-01-15T06:48:36.065Z,995.0
2019-01-15T06:49:36.734Z,995.0
2019-01-15T06:50:37.401Z,995.0
2019-01-15T06:51:38.070Z,995.1
2019-01-15T06:52:38.738Z,995.0
2019-01-15T06:53:39.409Z,994.9
2019-01-15T06:54:40.085Z,994.8
2019-01-15T06:55:40.747Z,994.9
2019-01-15T06:56:41.418Z,995.0
2019-01-15T06:57:42.085Z,995.0
2019-01-15T06:58:42.755Z,995.1
2019-01-15T06:59:43.425Z,995.0
2019-01-15T07:00:44.094Z,995.1
2019-01-15T07:01:44.762Z,995.1
2019-01-15T07:02:45.439Z,995.2
2019-01-15T07:03:46.108Z,995.1
2019-01-15T07:04:46.776Z,995.1
2019-01-15T07:05:47.449Z,995.1
2019-01-15T07:06:48.116Z,995.1
2019-01-15T07:07:48.785Z,995.1
2019-01-15T07:08:49.458Z,995.1
2019-01-15T07:09:50.127Z,995.1
2019-01-15T07:10:50.794Z,995.2
2019-01-15T07:11:51.461Z,995.2
2019-01-15T07:12:52.133Z,995.1
2019-01-15T07:13:56.969Z,995.2
2019-01-15T07:14:54.515Z,995.1
2019-01-15T07:15:55.183Z,995.2
2019-01-15T07:16:55.854Z,995.1
2019-01-15T07:17:56.524Z,995.1
2019-01-15T07:18:57.196Z,995.1
2019-01-15T07:19:57.866Z,995.1
2019-01-15T07:20:58.546Z,995.1
2019-01-15T07:21:59.208Z,995.2
2019-01-15T07:22:59.878Z,995.1
2019-01-15T07:24:00.548Z,995.2
2019-01-15T07:25:01.219Z,995.2
2019-01-15T07:26:01.889Z,995.2
2019-01-15T07:27:02.564Z,995.1
2019-01-15T07:28:03.234Z,995.2
2019-01-15T07:29:03.939Z,995.2
2019-01-15T07:30:04.579Z,995.1
2019-01-15T07:31:05.251Z,995.0
2019-01-15T07:32:05.974Z,995.0
2019-01-15T07:33:06.648Z,995.0
2019-01-15T07:34:07.330Z,995.0
2019-01-15T07:35:08.003Z,995.0
2019-01-15T07:36:08.671Z,995.0
2019-01-15T07:37:09.344Z,995.0
2019-01-15T07:38:10.014Z,995.0
2019-01-15T07:39:10.685Z,995.1
2019-01-15T07:40:11.358Z,995.1
2019-01-15T07:41:12.031Z,995.1
2019-01-15T07:42:12.705Z,995.2
2019-01-15T07:43:13.375Z,995.1
2019-01-15T07:44:14.047Z,995.1
2019-01-15T07:45:14.720Z,995.1
2019-01-15T07:46:15.392Z,995.1
2019-01-15T07:47:16.064Z,995.0
2019-01-15T07:48:16.737Z,995.1
2019-01-15T07:49:17.409Z,995.1
2019-01-15T07:50:18.081Z,995.1
2019-01-15T07:51:18.753Z,995.1
2019-01-15T07:52:19.426Z,995.1
2019-01-15T07:53:20.097Z,995.1
2019-01-15T07:54:20.767Z,995.1
2019-01-15T07:55:21.440Z,995.1
2019-01-15T07:56:22.113Z,995.1
2019-01-15T07:57:22.783Z,995.1
2019-01-15T07:58:23.454Z,995.1
2019-01-15T07:59:24.128Z,995.1
2019-01-15T08:00:24.799Z,995.2
2019-01-15T08:01:25.469Z,995.2
2019-01-15T08:02:26.142Z,995.1
2019-01-15T08:03:26.816Z,995.2
2019-01-15T08:04:27.490Z,995.2
2019-01-15T08:05:28.163Z,995.1
2019-01-15T08:06:28.836Z,995.2
2019-01-15T08:07:29.509Z,995.3
2019-01-15T08:08:30.179Z,995.2
2019-01-15T08:09:30.853Z,995.2
2019-01-15T08:10:31.529Z,995.2
2019-01-15T08:11:32.200Z,995.3
2019-01-15T08:12:32.873Z,995.4
2019-01-15T08:13:33.547Z,995.3
2019-01-15T08:14:34.220Z,995.4
2019-01-15T08:15:34.892Z,995.5
2019-01-15T08:16:35.565Z,995.4
2019-01-15T08:17:36.239Z,995.4
2019-01-15T08:18:36.912Z,995.4
2019-01-15T08:19:37.585Z,995.3
2019-01-15T08:20:38.257Z,995.3
2019-01-15T08:21:38.932Z,995.4
2019-01-15T08:22:39.607Z,995.4
2019-01-15T08:23:40.278Z,995.2
2019-01-15T08:24:40.952Z,995.2
2019-01-15T08:25:41.625Z,995.2
2019-01-15T08:26:42.300Z,995.2
2019-01-15T08:27:43.024Z,995.1
2019-01-15T08:28:43.699Z,995.2
2019-01-15T08:29:44.371Z,995.1
2019-01-15T08:30:45.043Z,995.1
2019-01-15T08:31:45.718Z,995.1
2019-01-15T08:32:46.392Z,995.1
2019-01-15T08:33:47.064Z,995.1
2019-01-15T08:34:47.738Z,995.1
2019-01-15T08:35:48.413Z,995.1
2019-01-15T08:36:49.090Z,995.1
2019-01-15T08:37:49.758Z,995.1
2019-01-15T08:38:50.431Z,995.1
2019-01-15T08:39:51.106Z,995.1
2019-01-15T08:40:51.779Z,995.1
2019-01-15T08:41:52.453Z,995.3
2019-01-15T08:42:53.127Z,995.2
2019-01-15T08:43:53.800Z,995.1
2019-01-15T08:44:54.475Z,995.1
2019-01-15T08:45:55.485Z,995.0
2019-01-15T08:46:56.129Z,995.1
2019-01-15T08:47:56.803Z,995.2
2019-01-15T08:48:57.476Z,995.1
2019-01-15T08:49:58.150Z,995.2
2019-01-15T08:50:58.824Z,995.1
2019-01-15T08:51:59.497Z,995.1
2019-01-15T08:53:00.178Z,995.2
2019-01-15T08:54:00.845Z,995.1
2019-01-15T08:55:01.520Z,995.1
2019-01-15T08:56:02.192Z,995.1
2019-01-15T08:57:02.866Z,995.1
2019-01-15T08:58:03.538Z,995.1
2019-01-15T08:59:04.211Z,995.1
2019-01-15T09:00:04.885Z,995.1
2019-01-15T09:01:05.596Z,995.1
2019-01-15T09:02:06.285Z,995.1
2019-01-15T09:03:06.960Z,995.2
2019-01-15T09:04:07.635Z,995.0
2019-01-15T09:05:08.302Z,995.0
2019-01-15T09:06:08.977Z,995.0
2019-01-15T09:07:09.652Z,995.0
2019-01-15T09:08:10.329Z,995.0
2019-01-15T09:09:11.005Z,995.0
2019-01-15T09:10:11.679Z,995.0
2019-01-15T09:11:12.354Z,994.9
2019-01-15T09:12:13.029Z,995.0
2019-01-15T09:13:13.705Z,994.9
2019-01-15T09:14:14.379Z,994.8
2019-01-15T09:15:15.062Z,994.9
2019-01-15T09:16:15.757Z,994.9
2019-01-15T09:17:16.509Z,994.9
2019-01-15T09:18:17.225Z,994.8
2019-01-15T09:19:17.900Z,994.8
2019-01-15T09:20:18.575Z,994.8
2019-01-15T09:21:19.266Z,994.8
2019-01-15T09:22:19.940Z,994.8
2019-01-15T09:23:20.615Z,994.8
2019-01-15T09:24:21.292Z,994.8
2019-01-15T09:25:21.967Z,994.8
2019-01-15T09:26:22.644Z,994.9
2019-01-15T09:27:23.316Z,994.8
2019-01-15T09:28:23.990Z,994.9
2019-01-15T09:29:24.667Z,994.8
2019-01-15T09:30:25.343Z,995.0
2019-01-15T09:31:26.017Z,994.8
2019-01-15T09:32:26.691Z,994.9
2019-01-15T09:33:27.368Z,994.8
2019-01-15T09:34:28.091Z,994.8
2019-01-15T09:35:28.766Z,994.8
2019-01-15T09:36:29.442Z,994.8
2019-01-15T09:37:30.116Z,994.8
2019-01-15T09:38:30.790Z,994.7
2019-01-15T09:39:31.466Z,994.8
2019-01-15T09:40:32.142Z,994.7
2019-01-15T09:41:32.816Z,994.7
2019-01-15T09:42:33.490Z,994.8
2019-01-15T09:43:34.166Z,994.7
2019-01-15T09:44:34.841Z,994.7
2019-01-15T09:45:35.515Z,994.7
2019-01-15T09:46:36.188Z,994.7
2019-01-15T09:47:36.865Z,994.7
2019-01-15T09:48:37.590Z,994.8
2019-01-15T09:49:38.268Z,994.8
2019-01-15T09:50:38.940Z,994.7
2019-01-15T09:51:39.617Z,994.7
2019-01-15T09:52:40.290Z,994.7
2019-01-15T09:53:40.963Z,994.7
2019-01-15T09:54:41.639Z,994.6
2019-01-15T09:55:42.315Z,994.6
2019-01-15T09:56:42.990Z,994.6
2019-01-15T09:57:43.666Z,994.6
2019-01-15T09:58:44.342Z,994.5
2019-01-15T09:59:45.019Z,994.5
2019-01-15T10:00:45.693Z,994.5
2019-01-15T10:01:46.368Z,994.5
2019-01-15T10:02:47.045Z,994.5
2019-01-15T10:03:47.719Z,994.5
2019-01-15T10:04:48.394Z,994.5
2019-01-15T10:05:49.066Z,994.4
2019-01-15T10:06:49.742Z,994.4
2019-01-15T10:07:50.422Z,994.4
2019-01-15T10:08:51.096Z,994.4
2019-01-15T10:09:51.770Z,994.3
2019-01-15T10:10:52.445Z,994.4
2019-01-15T10:11:53.122Z,994.4
2019-01-15T10:12:53.795Z,994.3
2019-01-15T10:13:54.472Z,994.3
2019-01-15T10:14:55.142Z,994.3
2019-01-15T10:15:55.821Z,994.3
2019-01-15T10:16:56.494Z,994.3
2019-01-15T10:17:57.173Z,994.2
2019-01-15T10:18:57.843Z,994.3
2019-01-15T10:19:58.518Z,994.3
2019-01-15T10:20:59.194Z,994.2
2019-01-15T10:21:59.867Z,994.2
2019-01-15T10:23:00.541Z,994.2
2019-01-15T10:24:01.218Z,994.2
2019-01-15T10:25:01.893Z,994.2
2019-01-15T10:26:02.567Z,994.2
2019-01-15T10:27:03.242Z,994.2
2019-01-15T10:28:03.916Z,994.2
2019-01-15T10:29:04.592Z,994.2
2019-01-15T10:30:05.266Z,994.2
2019-01-15T10:31:05.940Z,994.1
2019-01-15T10:32:06.616Z,994.2
2019-01-15T10:33:07.297Z,994.1
2019-01-15T10:34:07.974Z,994.2
2019-01-15T10:35:08.649Z,994.1
2019-01-15T10:36:09.322Z,994.1
2019-01-15T10:37:09.997Z,994.1
2019-01-15T10:38:10.676Z,994.1
2019-01-15T10:39:11.350Z,994.2
2019-01-15T10:40:12.023Z,994.1
2019-01-15T10:41:12.758Z,994.2
2019-01-15T10:42:13.393Z,994.1
2019-01-15T10:43:14.066Z,994.0
2019-01-15T10:44:14.741Z,994.0
2019-01-15T10:45:15.414Z,994.0
2019-01-15T10:46:16.092Z,994.0
2019-01-15T10:47:16.765Z,994.0
2019-01-15T10:48:17.439Z,994.1
2019-01-15T10:49:18.115Z,993.9
2019-01-15T10:50:18.796Z,994.0
2019-01-15T10:51:19.517Z,993.9
2019-01-15T10:52:20.245Z,994.0
2019-01-15T10:53:20.921Z,993.9
2019-01-15T10:54:21.598Z,993.9
2019-01-15T10:55:22.275Z,994.0
2019-01-15T10:56:22.951Z,994.0
2019-01-15T10:57:23.626Z,994.0
2019-01-15T10:58:24.302Z,994.0
2019-01-15T10:59:24.977Z,994.0
2019-01-15T11:00:25.654Z,993.9
2019-01-15T11:01:26.331Z,993.9
2019-01-15T11:02:27.007Z,993.9
2019-01-15T11:03:27.682Z,993.9
2019-01-15T11:04:28.358Z,993.9
2019-01-15T11:05:29.035Z,994.0
2019-01-15T11:06:29.711Z,994.0
2019-01-15T11:07:30.436Z,993.9
2019-01-15T11:08:31.115Z,993.9
2019-01-15T11:09:31.788Z,993.8
2019-01-15T11:10:32.465Z,993.9
2019-01-15T11:11:33.139Z,993.9
2019-01-15T11:12:33.817Z,993.8
2019-01-15T11:13:34.493Z,993.9
2019-01-15T11:14:35.168Z,993.8
2019-01-15T11:15:43.035Z,993.8
2019-01-15T11:16:37.511Z,993.7
2019-01-15T11:17:38.186Z,993.8
2019-01-15T11:18:39.558Z,993.7
2019-01-15T11:19:39.583Z,993.8
2019-01-15T11:20:40.259Z,993.7
2019-01-15T11:21:40.984Z,993.8
2019-01-15T11:22:41.663Z,993.7
2019-01-15T11:23:42.390Z,993.7
2019-01-15T11:24:43.065Z,993.7
2019-01-15T11:25:43.740Z,993.7
2019-01-15T11:26:44.465Z,993.7
2019-01-15T11:27:45.139Z,993.7
2019-01-15T11:28:45.817Z,993.7
2019-01-15T11:29:46.494Z,993.7
2019-01-15T11:30:47.170Z,993.7
2019-01-15T11:31:47.845Z,993.9
2019-01-15T11:32:48.522Z,993.7
2019-01-15T11:33:49.198Z,993.8
2019-01-15T11:34:49.874Z,993.9
2019-01-15T11:35:50.549Z,993.7
2019-01-15T11:36:51.225Z,993.7
2019-01-15T11:37:51.915Z,993.7
2019-01-15T11:38:52.627Z,993.7
2019-01-15T11:39:53.303Z,993.6
2019-01-15T11:40:53.981Z,993.6
2019-01-15T11:41:54.659Z,993.6
2019-01-15T11:42:55.339Z,993.5
2019-01-15T11:43:56.011Z,993.6
2019-01-15T11:45:03.222Z,993.5
2019-01-15T11:45:58.354Z,993.5
2019-01-15T11:46:59.030Z,993.5
2019-01-15T11:47:59.709Z,993.4
2019-01-15T11:49:00.416Z,993.6
2019-01-15T11:50:01.117Z,993.5
2019-01-15T11:51:01.790Z,993.4
2019-01-15T11:52:02.465Z,993.3
2019-01-15T11:53:03.145Z,993.4
2019-01-15T11:54:03.818Z,993.5
2019-01-15T11:55:04.495Z,993.3
2019-01-15T11:56:05.173Z,993.4
2019-01-15T11:57:05.850Z,993.3
2019-01-15T11:58:06.575Z,993.4
2019-01-15T11:59:07.251Z,993.3
2019-01-15T12:00:07.927Z,993.3
2019-01-15T12:01:08.604Z,993.3
2019-01-15T12:02:09.331Z,993.3
2019-01-15T12:03:10.008Z,993.3
2019-01-15T12:04:10.686Z,993.2
2019-01-15T12:05:11.363Z,993.3
2019-01-15T12:06:12.039Z,993.1
2019-01-15T12:07:12.715Z,993.2
2019-01-15T12:08:13.392Z,993.2
2019-01-15T12:09:14.118Z,993.3
2019-01-15T12:10:14.792Z,993.1
2019-01-15T12:11:15.470Z,993.3
2019-01-15T12:12:16.143Z,993.4
2019-01-15T12:13:16.818Z,993.2
2019-01-15T12:14:17.495Z,993.4
2019-01-15T12:15:18.170Z,993.2
2019-01-15T12:16:18.848Z,993.1
2019-01-15T12:17:19.572Z,993.1
2019-01-15T12:18:20.296Z,993.0
2019-01-15T12:19:20.972Z,993.1
2019-01-15T12:20:21.646Z,993.0
2019-01-15T12:21:22.323Z,993.0
2019-01-15T12:22:22.999Z,993.0
2019-01-15T12:23:23.674Z,993.0
2019-01-15T12:24:24.354Z,992.9
2019-01-15T12:25:25.025Z,993.0
2019-01-15T12:26:25.699Z,993.0
2019-01-15T12:27:26.374Z,993.0
2019-01-15T12:28:27.047Z,993.0
2019-01-15T12:29:27.724Z,993.0
2019-01-15T12:30:28.399Z,992.8
2019-01-15T12:31:29.076Z,993.0
2019-01-15T12:32:29.749Z,993.0
2019-01-15T12:33:30.425Z,992.9
2019-01-15T12:34:31.103Z,993.0
2019-01-15T12:35:31.775Z,992.8
2019-01-15T12:36:32.449Z,992.9
2019-01-15T12:37:33.126Z,992.9
2019-01-15T12:38:33.800Z,992.7
2019-01-15T12:39:34.475Z,992.8
2019-01-15T12:40:35.150Z,992.9
2019-01-15T12:41:35.836Z,992.8
2019-01-15T12:42:36.499Z,992.7
2019-01-15T12:43:37.175Z,992.8
2019-01-15T12:44:37.849Z,992.8
2019-01-15T12:45:38.527Z,992.9
2019-01-15T12:46:39.201Z,992.9
2019-01-15T12:47:39.877Z,992.8
2019-01-15T12:48:40.552Z,992.8
2019-01-15T12:49:41.229Z,992.8
2019-01-15T12:50:41.903Z,992.8
2019-01-15T12:51:42.578Z,992.9
2019-01-15T12:52:43.252Z,992.8
2019-01-15T12:53:43.927Z,992.9
2019-01-15T12:54:44.604Z,992.9
2019-01-15T12:55:45.277Z,992.8
2019-01-15T12:56:45.952Z,992.9
2019-01-15T12:57:46.628Z,992.9
2019-01-15T12:58:47.302Z,992.9
2019-01-15T12:59:47.976Z,992.9
2019-01-15T13:00:48.651Z,992.9